sensor_id;sensor_type;location;lat;lon;timestamp;pressure;altitude;pressure_sealevel;temperature;humidity
62592;BME280;48659;41.622;2.276;2023-03-03T00:00:51;99944.64;;;2.51;48.78
62592;BME280;48659;41.622;2.276;2023-03-03T00:03:21;99940.80;;;2.83;47.67
62592;BME280;48659;41.622;2.276;2023-03-03T00:05:49;99939.96;;;4.03;44.41
62592;BME280;48659;41.622;2.276;2023-03-03T00:08:23;99931.94;;;4.97;43.35
62592;BME280;48659;41.622;2.276;2023-03-03T00:10:51;99936.92;;;4.96;43.12
62592;BME280;48659;41.622;2.276;2023-03-03T00:13:21;99936.51;;;5.73;42.57
62592;BME280;48659;41.622;2.276;2023-03-03T00:15:50;99939.40;;;5.86;41.57
62592;BME280;48659;41.622;2.276;2023-03-03T00:18:24;99937.71;;;5.50;42.86
62592;BME280;48659;41.622;2.276;2023-03-03T00:20:54;99937.59;;;4.39;43.20
62592;BME280;48659;41.622;2.276;2023-03-03T00:23:29;99941.44;;;5.93;41.72
62592;BME280;48659;41.622;2.276;2023-03-03T00:25:57;99938.78;;;5.60;42.06
62592;BME280;48659;41.622;2.276;2023-03-03T00:28:27;99938.78;;;5.72;41.84
62592;BME280;48659;41.622;2.276;2023-03-03T00:30:57;99936.06;;;5.70;42.54
62592;BME280;48659;41.622;2.276;2023-03-03T00:33:28;99934.13;;;5.06;43.02
62592;BME280;48659;41.622;2.276;2023-03-03T00:35:56;99929.81;;;5.23;43.05
62592;BME280;48659;41.622;2.276;2023-03-03T00:38:26;99925.69;;;5.32;43.57
62592;BME280;48659;41.622;2.276;2023-03-03T00:40:53;99921.96;;;5.18;43.95
62592;BME280;48659;41.622;2.276;2023-03-03T00:43:22;99918.51;;;5.80;42.94
62592;BME280;48659;41.622;2.276;2023-03-03T00:45:52;99917.40;;;5.80;42.34
62592;BME280;48659;41.622;2.276;2023-03-03T00:48:22;99915.72;;;5.87;41.35
62592;BME280;48659;41.622;2.276;2023-03-03T00:50:51;99915.01;;;5.64;41.74
62592;BME280;48659;41.622;2.276;2023-03-03T00:53:19;99911.03;;;5.69;40.78
62592;BME280;48659;41.622;2.276;2023-03-03T00:55:48;99905.89;;;3.57;41.44
62592;BME280;48659;41.622;2.276;2023-03-03T00:58:17;99903.59;;;5.21;41.40
62592;BME280;48659;41.622;2.276;2023-03-03T01:00:44;99910.81;;;5.69;39.85
62592;BME280;48659;41.622;2.276;2023-03-03T01:03:14;99912.89;;;5.03;39.94
62592;BME280;48659;41.622;2.276;2023-03-03T01:05:45;99915.16;;;4.90;39.28
62592;BME280;48659;41.622;2.276;2023-03-03T01:08:13;99914.56;;;5.54;39.32
62592;BME280;48659;41.622;2.276;2023-03-03T01:10:44;99912.38;;;5.99;39.17
62592;BME280;48659;41.622;2.276;2023-03-03T01:13:13;99911.47;;;6.02;39.97
62592;BME280;48659;41.622;2.276;2023-03-03T01:15:44;99911.30;;;4.67;41.24
62592;BME280;48659;41.622;2.276;2023-03-03T01:18:12;99914.75;;;6.04;39.63
62592;BME280;48659;41.622;2.276;2023-03-03T01:20:40;99913.13;;;5.28;40.51
62592;BME280;48659;41.622;2.276;2023-03-03T01:23:07;99916.00;;;5.55;40.12
62592;BME280;48659;41.622;2.276;2023-03-03T01:25:35;99915.18;;;4.96;40.52
62592;BME280;48659;41.622;2.276;2023-03-03T01:28:03;99915.62;;;5.29;40.87
62592;BME280;48659;41.622;2.276;2023-03-03T01:30:31;99916.20;;;5.17;41.76
62592;BME280;48659;41.622;2.276;2023-03-03T01:32:59;99917.92;;;4.62;42.74
62592;BME280;48659;41.622;2.276;2023-03-03T01:35:26;99913.86;;;5.00;42.42
62592;BME280;48659;41.622;2.276;2023-03-03T01:37:53;99909.39;;;4.92;42.03
62592;BME280;48659;41.622;2.276;2023-03-03T01:40:22;99908.21;;;5.58;41.68
62592;BME280;48659;41.622;2.276;2023-03-03T01:42:52;99908.74;;;5.31;42.00
62592;BME280;48659;41.622;2.276;2023-03-03T01:45:22;99909.03;;;5.46;42.26
62592;BME280;48659;41.622;2.276;2023-03-03T01:47:55;99909.53;;;5.05;41.95
62592;BME280;48659;41.622;2.276;2023-03-03T01:50:46;99907.77;;;4.95;42.49
62592;BME280;48659;41.622;2.276;2023-03-03T01:53:17;99906.53;;;4.33;43.13
62592;BME280;48659;41.622;2.276;2023-03-03T01:55:46;99909.83;;;4.13;43.51
62592;BME280;48659;41.622;2.276;2023-03-03T01:58:21;99907.26;;;3.89;43.69
62592;BME280;48659;41.622;2.276;2023-03-03T02:00:56;99901.79;;;4.54;42.73
62592;BME280;48659;41.622;2.276;2023-03-03T02:03:26;99899.82;;;4.46;42.62
62592;BME280;48659;41.622;2.276;2023-03-03T02:05:55;99901.70;;;4.34;42.78
62592;BME280;48659;41.622;2.276;2023-03-03T02:08:29;99896.04;;;5.15;42.51
62592;BME280;48659;41.622;2.276;2023-03-03T02:10:59;99897.79;;;4.59;42.73
62592;BME280;48659;41.622;2.276;2023-03-03T02:13:27;99896.38;;;4.30;43.46
62592;BME280;48659;41.622;2.276;2023-03-03T02:15:54;99893.66;;;4.02;43.80
62592;BME280;48659;41.622;2.276;2023-03-03T02:18:22;99893.54;;;4.19;43.80
62592;BME280;48659;41.622;2.276;2023-03-03T02:20:55;99895.99;;;4.61;43.19
62592;BME280;48659;41.622;2.276;2023-03-03T02:23:28;99898.29;;;4.39;43.53
62592;BME280;48659;41.622;2.276;2023-03-03T02:26:05;99897.20;;;4.18;43.74
62592;BME280;48659;41.622;2.276;2023-03-03T02:32:20;99889.59;;;3.71;41.67
62592;BME280;48659;41.622;2.276;2023-03-03T02:34:50;99886.53;;;4.86;41.37
62592;BME280;48659;41.622;2.276;2023-03-03T02:37:20;99882.19;;;5.35;41.11
62592;BME280;48659;41.622;2.276;2023-03-03T02:39:55;99884.60;;;3.07;43.88
62592;BME280;48659;41.622;2.276;2023-03-03T02:42:26;99888.34;;;3.57;43.89
62592;BME280;48659;41.622;2.276;2023-03-03T02:44:56;99884.42;;;3.76;42.66
62592;BME280;48659;41.622;2.276;2023-03-03T02:47:23;99881.03;;;4.55;42.13
62592;BME280;48659;41.622;2.276;2023-03-03T02:49:56;99880.82;;;4.26;42.17
62592;BME280;48659;41.622;2.276;2023-03-03T02:52:24;99879.09;;;3.87;43.27
62592;BME280;48659;41.622;2.276;2023-03-03T02:55:07;99881.23;;;2.80;45.33
62592;BME280;48659;41.622;2.276;2023-03-03T02:57:34;99879.21;;;4.32;43.01
62592;BME280;48659;41.622;2.276;2023-03-03T03:00:03;99874.95;;;4.81;41.88
62592;BME280;48659;41.622;2.276;2023-03-03T03:02:31;99870.86;;;4.72;41.95
62592;BME280;48659;41.622;2.276;2023-03-03T03:04:58;99874.48;;;2.55;46.24
62592;BME280;48659;41.622;2.276;2023-03-03T03:07:25;99882.04;;;1.64;48.73
62592;BME280;48659;41.622;2.276;2023-03-03T03:09:53;99877.52;;;2.26;46.13
62592;BME280;48659;41.622;2.276;2023-03-03T03:12:20;99878.57;;;2.91;46.22
62592;BME280;48659;41.622;2.276;2023-03-03T03:14:54;99871.77;;;2.59;47.13
62592;BME280;48659;41.622;2.276;2023-03-03T03:17:22;99870.23;;;3.09;46.09
62592;BME280;48659;41.622;2.276;2023-03-03T03:19:51;99866.26;;;2.69;46.02
62592;BME280;48659;41.622;2.276;2023-03-03T03:22:18;99859.69;;;3.83;43.46
62592;BME280;48659;41.622;2.276;2023-03-03T03:24:46;99857.16;;;4.00;43.47
62592;BME280;48659;41.622;2.276;2023-03-03T03:27:14;99856.20;;;3.78;43.15
62592;BME280;48659;41.622;2.276;2023-03-03T03:29:41;99855.26;;;4.50;42.45
62592;BME280;48659;41.622;2.276;2023-03-03T03:32:09;99854.22;;;4.61;41.62
62592;BME280;48659;41.622;2.276;2023-03-03T03:34:37;99853.34;;;5.48;40.58
62592;BME280;48659;41.622;2.276;2023-03-03T03:37:05;99848.14;;;4.27;40.99
62592;BME280;48659;41.622;2.276;2023-03-03T03:39:32;99849.44;;;4.39;42.10
62592;BME280;48659;41.622;2.276;2023-03-03T03:42:06;99846.81;;;4.01;42.77
62592;BME280;48659;41.622;2.276;2023-03-03T03:44:34;99843.45;;;4.21;43.28
62592;BME280;48659;41.622;2.276;2023-03-03T03:47:02;99845.17;;;3.55;42.96
62592;BME280;48659;41.622;2.276;2023-03-03T03:49:29;99848.44;;;4.18;43.33
62592;BME280;48659;41.622;2.276;2023-03-03T03:51:57;99849.69;;;3.29;43.29
62592;BME280;48659;41.622;2.276;2023-03-03T03:54:25;99851.82;;;2.68;44.27
62592;BME280;48659;41.622;2.276;2023-03-03T03:56:55;99850.14;;;3.14;44.41
62592;BME280;48659;41.622;2.276;2023-03-03T03:59:23;99850.71;;;3.52;44.49
62592;BME280;48659;41.622;2.276;2023-03-03T04:01:57;99854.40;;;2.80;44.69
62592;BME280;48659;41.622;2.276;2023-03-03T04:04:24;99852.41;;;3.21;44.05
62592;BME280;48659;41.622;2.276;2023-03-03T04:06:52;99850.60;;;2.96;44.26
62592;BME280;48659;41.622;2.276;2023-03-03T04:09:19;99850.86;;;3.92;43.25
62592;BME280;48659;41.622;2.276;2023-03-03T04:11:55;99847.90;;;3.92;41.85
62592;BME280;48659;41.622;2.276;2023-03-03T04:14:23;99850.72;;;4.79;41.23
62592;BME280;48659;41.622;2.276;2023-03-03T04:16:55;99849.43;;;4.10;41.55
62592;BME280;48659;41.622;2.276;2023-03-03T04:19:28;99850.26;;;4.51;41.72
62592;BME280;48659;41.622;2.276;2023-03-03T04:21:56;99848.76;;;3.86;42.08
62592;BME280;48659;41.622;2.276;2023-03-03T04:24:24;99844.66;;;4.66;42.29
62592;BME280;48659;41.622;2.276;2023-03-03T04:26:55;99850.63;;;4.00;42.54
62592;BME280;48659;41.622;2.276;2023-03-03T04:29:23;99853.34;;;4.67;42.77
62592;BME280;48659;41.622;2.276;2023-03-03T04:31:56;99857.56;;;3.40;43.74
62592;BME280;48659;41.622;2.276;2023-03-03T04:34:24;99854.78;;;3.64;44.01
62592;BME280;48659;41.622;2.276;2023-03-03T04:36:56;99849.95;;;3.73;42.99
62592;BME280;48659;41.622;2.276;2023-03-03T04:39:23;99850.58;;;4.58;42.82
62592;BME280;48659;41.622;2.276;2023-03-03T04:41:55;99857.28;;;3.05;44.36
62592;BME280;48659;41.622;2.276;2023-03-03T04:44:23;99855.90;;;3.57;44.74
62592;BME280;48659;41.622;2.276;2023-03-03T04:46:55;99857.54;;;3.58;45.41
62592;BME280;48659;41.622;2.276;2023-03-03T04:49:23;99860.73;;;3.56;45.79
62592;BME280;48659;41.622;2.276;2023-03-03T04:51:51;99861.23;;;2.99;46.23
62592;BME280;48659;41.622;2.276;2023-03-03T04:54:18;99860.93;;;2.97;46.36
62592;BME280;48659;41.622;2.276;2023-03-03T04:56:46;99860.57;;;3.71;45.52
62592;BME280;48659;41.622;2.276;2023-03-03T04:59:14;99864.47;;;3.44;45.20
62592;BME280;48659;41.622;2.276;2023-03-03T05:01:42;99865.16;;;3.70;45.33
62592;BME280;48659;41.622;2.276;2023-03-03T05:04:09;99870.92;;;2.64;45.60
62592;BME280;48659;41.622;2.276;2023-03-03T05:06:36;99868.18;;;3.14;45.94
62592;BME280;48659;41.622;2.276;2023-03-03T05:09:03;99872.13;;;1.86;48.00
62592;BME280;48659;41.622;2.276;2023-03-03T05:11:30;99871.85;;;0.03;53.07
62592;BME280;48659;41.622;2.276;2023-03-03T05:14:01;99872.98;;;0.28;52.09
62592;BME280;48659;41.622;2.276;2023-03-03T05:16:28;99870.88;;;0.65;52.12
62592;BME280;48659;41.622;2.276;2023-03-03T05:18:55;99873.36;;;1.11;50.94
62592;BME280;48659;41.622;2.276;2023-03-03T05:21:23;99871.79;;;-0.36;54.19
62592;BME280;48659;41.622;2.276;2023-03-03T05:23:51;99866.21;;;0.34;52.10
62592;BME280;48659;41.622;2.276;2023-03-03T05:26:19;99868.32;;;0.88;53.17
62592;BME280;48659;41.622;2.276;2023-03-03T05:28:47;99866.13;;;1.67;49.61
62592;BME280;48659;41.622;2.276;2023-03-03T05:31:15;99864.40;;;1.86;48.36
62592;BME280;48659;41.622;2.276;2023-03-03T05:33:42;99864.77;;;3.14;46.91
62592;BME280;48659;41.622;2.276;2023-03-03T05:36:10;99866.93;;;1.76;47.34
62592;BME280;48659;41.622;2.276;2023-03-03T05:38:37;99864.38;;;3.12;47.42
62592;BME280;48659;41.622;2.276;2023-03-03T05:41:04;99864.46;;;1.64;47.84
62592;BME280;48659;41.622;2.276;2023-03-03T05:43:32;99866.74;;;1.46;48.46
62592;BME280;48659;41.622;2.276;2023-03-03T05:46:00;99861.15;;;2.40;46.88
62592;BME280;48659;41.622;2.276;2023-03-03T05:48:28;99865.60;;;1.37;48.91
62592;BME280;48659;41.622;2.276;2023-03-03T05:51:00;99855.19;;;3.36;44.53
62592;BME280;48659;41.622;2.276;2023-03-03T05:53:28;99856.40;;;4.17;43.85
62592;BME280;48659;41.622;2.276;2023-03-03T05:55:57;99865.65;;;1.54;47.65
62592;BME280;48659;41.622;2.276;2023-03-03T05:58:24;99859.89;;;3.14;46.63
62592;BME280;48659;41.622;2.276;2023-03-03T06:00:51;99859.78;;;4.41;44.77
62592;BME280;48659;41.622;2.276;2023-03-03T06:03:20;99865.05;;;3.24;44.59
62592;BME280;48659;41.622;2.276;2023-03-03T06:05:55;99866.32;;;2.84;44.52
62592;BME280;48659;41.622;2.276;2023-03-03T06:08:22;99866.53;;;4.50;43.07
62592;BME280;48659;41.622;2.276;2023-03-03T06:10:50;99870.06;;;4.28;42.66
62592;BME280;48659;41.622;2.276;2023-03-03T06:13:18;99874.27;;;3.99;43.09
62592;BME280;48659;41.622;2.276;2023-03-03T06:15:46;99877.09;;;4.44;42.81
62592;BME280;48659;41.622;2.276;2023-03-03T06:18:13;99880.49;;;3.81;43.55
62592;BME280;48659;41.622;2.276;2023-03-03T06:20:40;99877.01;;;3.83;43.11
62592;BME280;48659;41.622;2.276;2023-03-03T06:23:09;99876.55;;;3.82;42.88
62592;BME280;48659;41.622;2.276;2023-03-03T06:25:38;99874.55;;;4.36;43.12
62592;BME280;48659;41.622;2.276;2023-03-03T06:28:06;99876.56;;;4.68;42.45
62592;BME280;48659;41.622;2.276;2023-03-03T06:30:34;99881.64;;;4.32;42.91
62592;BME280;48659;41.622;2.276;2023-03-03T06:33:02;99885.95;;;3.23;44.04
62592;BME280;48659;41.622;2.276;2023-03-03T06:35:30;99890.68;;;3.72;43.84
62592;BME280;48659;41.622;2.276;2023-03-03T06:37:58;99890.34;;;3.90;43.89
62592;BME280;48659;41.622;2.276;2023-03-03T06:40:25;99894.75;;;3.92;44.29
62592;BME280;48659;41.622;2.276;2023-03-03T06:42:55;99895.28;;;3.93;43.85
62592;BME280;48659;41.622;2.276;2023-03-03T06:45:23;99892.96;;;4.75;42.19
62592;BME280;48659;41.622;2.276;2023-03-03T06:47:55;99896.16;;;3.42;43.32
62592;BME280;48659;41.622;2.276;2023-03-03T06:50:23;99895.90;;;4.57;43.05
62592;BME280;48659;41.622;2.276;2023-03-03T06:53:00;99901.22;;;4.25;43.02
62592;BME280;48659;41.622;2.276;2023-03-03T06:55:28;99903.44;;;4.88;42.41
62592;BME280;48659;41.622;2.276;2023-03-03T06:58:11;99909.07;;;3.49;43.36
62592;BME280;48659;41.622;2.276;2023-03-03T07:00:40;99908.45;;;4.43;43.52
62592;BME280;48659;41.622;2.276;2023-03-03T07:03:14;99907.86;;;4.43;43.90
62592;BME280;48659;41.622;2.276;2023-03-03T07:05:43;99907.54;;;4.52;42.87
62592;BME280;48659;41.622;2.276;2023-03-03T07:08:16;99907.00;;;4.58;42.53
62592;BME280;48659;41.622;2.276;2023-03-03T07:11:07;99907.49;;;5.15;41.71
62592;BME280;48659;41.622;2.276;2023-03-03T07:13:41;99912.84;;;5.14;41.99
62592;BME280;48659;41.622;2.276;2023-03-03T07:16:12;99913.27;;;4.68;42.04
62592;BME280;48659;41.622;2.276;2023-03-03T07:18:55;99914.67;;;5.05;42.52
62592;BME280;48659;41.622;2.276;2023-03-03T07:21:29;99919.39;;;5.59;42.35
62592;BME280;48659;41.622;2.276;2023-03-03T07:24:25;99923.10;;;4.70;41.15
62592;BME280;48659;41.622;2.276;2023-03-03T07:26:55;99927.15;;;5.52;39.98
62592;BME280;48659;41.622;2.276;2023-03-03T07:29:27;99928.95;;;5.96;41.08
62592;BME280;48659;41.622;2.276;2023-03-03T07:31:56;99928.30;;;6.11;39.88
62592;BME280;48659;41.622;2.276;2023-03-03T07:34:30;99929.19;;;6.29;40.34
62592;BME280;48659;41.622;2.276;2023-03-03T07:37:10;99925.49;;;6.79;42.70
62592;BME280;48659;41.622;2.276;2023-03-03T07:39:44;99932.70;;;6.17;41.17
62592;BME280;48659;41.622;2.276;2023-03-03T07:42:19;99937.38;;;6.17;40.90
62592;BME280;48659;41.622;2.276;2023-03-03T07:44:56;99938.05;;;5.79;39.72
62592;BME280;48659;41.622;2.276;2023-03-03T07:47:26;99942.56;;;6.41;39.59
62592;BME280;48659;41.622;2.276;2023-03-03T07:49:59;99945.14;;;5.78;39.38
62592;BME280;48659;41.622;2.276;2023-03-03T07:52:31;99948.50;;;7.05;39.31
62592;BME280;48659;41.622;2.276;2023-03-03T07:55:26;99952.30;;;6.22;38.40
62592;BME280;48659;41.622;2.276;2023-03-03T07:58:05;99947.57;;;6.23;38.51
62592;BME280;48659;41.622;2.276;2023-03-03T08:01:38;99949.93;;;7.45;37.20
62592;BME280;48659;41.622;2.276;2023-03-03T08:04:15;99952.25;;;7.04;36.97
62592;BME280;48659;41.622;2.276;2023-03-03T08:06:47;99954.46;;;7.38;38.44
62592;BME280;48659;41.622;2.276;2023-03-03T08:09:37;99960.03;;;5.81;40.08
62592;BME280;48659;41.622;2.276;2023-03-03T08:12:39;99963.07;;;7.00;39.03
62592;BME280;48659;41.622;2.276;2023-03-03T08:15:16;99961.36;;;6.82;38.70
62592;BME280;48659;41.622;2.276;2023-03-03T08:17:45;99963.11;;;7.43;39.05
62592;BME280;48659;41.622;2.276;2023-03-03T08:20:52;99964.94;;;7.81;37.79
62592;BME280;48659;41.622;2.276;2023-03-03T08:23:20;99963.25;;;7.95;37.79
62592;BME280;48659;41.622;2.276;2023-03-03T08:25:49;99969.35;;;7.51;38.09
62592;BME280;48659;41.622;2.276;2023-03-03T08:28:18;99972.23;;;7.71;38.29
62592;BME280;48659;41.622;2.276;2023-03-03T08:30:56;99975.96;;;5.96;40.27
62592;BME280;48659;41.622;2.276;2023-03-03T08:33:23;99968.66;;;6.81;39.07
62592;BME280;48659;41.622;2.276;2023-03-03T08:35:51;99970.16;;;7.54;37.92
62592;BME280;48659;41.622;2.276;2023-03-03T08:38:20;99971.57;;;7.51;38.70
62592;BME280;48659;41.622;2.276;2023-03-03T08:40:49;99967.92;;;7.93;37.89
62592;BME280;48659;41.622;2.276;2023-03-03T08:43:17;99968.45;;;8.08;38.04
62592;BME280;48659;41.622;2.276;2023-03-03T08:45:46;99967.65;;;8.13;38.20
62592;BME280;48659;41.622;2.276;2023-03-03T08:48:15;99968.87;;;8.30;37.29
62592;BME280;48659;41.622;2.276;2023-03-03T08:50:43;99971.08;;;8.16;37.48
62592;BME280;48659;41.622;2.276;2023-03-03T08:53:12;99966.38;;;7.62;37.90
62592;BME280;48659;41.622;2.276;2023-03-03T08:55:41;99967.32;;;7.16;38.73
62592;BME280;48659;41.622;2.276;2023-03-03T08:58:08;99966.97;;;7.79;39.36
62592;BME280;48659;41.622;2.276;2023-03-03T09:00:37;99967.58;;;8.55;36.82
62592;BME280;48659;41.622;2.276;2023-03-03T09:03:04;99964.69;;;8.41;35.98
62592;BME280;48659;41.622;2.276;2023-03-03T09:05:33;99967.46;;;8.91;35.92
62592;BME280;48659;41.622;2.276;2023-03-03T09:08:03;99968.74;;;8.98;36.00
62592;BME280;48659;41.622;2.276;2023-03-03T09:10:31;99968.93;;;9.19;36.05
62592;BME280;48659;41.622;2.276;2023-03-03T09:13:03;99963.18;;;8.66;35.47
62592;BME280;48659;41.622;2.276;2023-03-03T09:15:35;99966.78;;;9.59;35.36
62592;BME280;48659;41.622;2.276;2023-03-03T09:18:13;99966.94;;;7.76;35.90
62592;BME280;48659;41.622;2.276;2023-03-03T09:20:42;99965.19;;;9.89;34.93
62592;BME280;48659;41.622;2.276;2023-03-03T09:23:43;99966.63;;;8.73;36.32
62592;BME280;48659;41.622;2.276;2023-03-03T09:26:28;99968.28;;;9.45;35.52
62592;BME280;48659;41.622;2.276;2023-03-03T09:29:07;99968.38;;;9.68;34.39
62592;BME280;48659;41.622;2.276;2023-03-03T09:31:39;99966.16;;;9.85;36.09
62592;BME280;48659;41.622;2.276;2023-03-03T09:34:15;99966.65;;;9.55;34.27
62592;BME280;48659;41.622;2.276;2023-03-03T09:36:44;99974.15;;;8.20;36.34
62592;BME280;48659;41.622;2.276;2023-03-03T09:39:16;99969.55;;;8.28;35.28
62592;BME280;48659;41.622;2.276;2023-03-03T09:42:33;99968.11;;;10.27;33.13
62592;BME280;48659;41.622;2.276;2023-03-03T09:45:44;99963.53;;;9.39;32.91
62592;BME280;48659;41.622;2.276;2023-03-03T09:48:27;99963.56;;;10.34;33.61
62592;BME280;48659;41.622;2.276;2023-03-03T09:51:10;99962.53;;;10.46;33.17
62592;BME280;48659;41.622;2.276;2023-03-03T09:54:03;99959.84;;;10.77;32.09
62592;BME280;48659;41.622;2.276;2023-03-03T09:56:38;99961.68;;;8.96;33.94
62592;BME280;48659;41.622;2.276;2023-03-03T09:59:23;99959.88;;;9.83;33.04
62592;BME280;48659;41.622;2.276;2023-03-03T10:02:05;99961.64;;;9.86;32.37
62592;BME280;48659;41.622;2.276;2023-03-03T10:04:57;99959.28;;;9.46;33.54
62592;BME280;48659;41.622;2.276;2023-03-03T10:07:38;99958.25;;;10.87;33.42
62592;BME280;48659;41.622;2.276;2023-03-03T10:11:29;99958.61;;;10.67;32.66
62592;BME280;48659;41.622;2.276;2023-03-03T10:14:14;99956.28;;;10.74;32.39
62592;BME280;48659;41.622;2.276;2023-03-03T10:17:05;99955.74;;;8.60;34.28
62592;BME280;48659;41.622;2.276;2023-03-03T10:19:46;99955.07;;;8.53;34.63
62592;BME280;48659;41.622;2.276;2023-03-03T10:22:22;99954.15;;;8.84;33.83
62592;BME280;48659;41.622;2.276;2023-03-03T10:25:06;99950.49;;;10.41;31.55
62592;BME280;48659;41.622;2.276;2023-03-03T10:27:46;99953.49;;;10.19;32.40
62592;BME280;48659;41.622;2.276;2023-03-03T10:30:22;99946.15;;;11.25;31.34
62592;BME280;48659;41.622;2.276;2023-03-03T10:32:57;99944.28;;;10.89;30.10
62592;BME280;48659;41.622;2.276;2023-03-03T10:35:42;99946.92;;;12.10;29.44
62592;BME280;48659;41.622;2.276;2023-03-03T10:38:24;99945.30;;;11.67;29.68
62592;BME280;48659;41.622;2.276;2023-03-03T10:41:09;99949.65;;;12.59;29.17
62592;BME280;48659;41.622;2.276;2023-03-03T10:43:50;99949.27;;;11.22;30.24
62592;BME280;48659;41.622;2.276;2023-03-03T10:46:37;99949.00;;;11.99;29.63
62592;BME280;48659;41.622;2.276;2023-03-03T10:49:18;99950.01;;;10.00;31.22
62592;BME280;48659;41.622;2.276;2023-03-03T10:51:58;99949.22;;;10.61;30.78
62592;BME280;48659;41.622;2.276;2023-03-03T10:54:44;99948.39;;;9.48;32.36
62592;BME280;48659;41.622;2.276;2023-03-03T10:57:25;99948.97;;;9.02;32.67
62592;BME280;48659;41.622;2.276;2023-03-03T11:00:07;99946.81;;;9.30;31.81
62592;BME280;48659;41.622;2.276;2023-03-03T11:03:08;99935.70;;;12.32;30.35
62592;BME280;48659;41.622;2.276;2023-03-03T11:05:43;99932.86;;;11.76;29.63
62592;BME280;48659;41.622;2.276;2023-03-03T11:08:28;99933.84;;;11.74;28.87
62592;BME280;48659;41.622;2.276;2023-03-03T11:11:07;99933.51;;;11.01;30.20
62592;BME280;48659;41.622;2.276;2023-03-03T11:13:44;99942.30;;;9.87;32.60
62592;BME280;48659;41.622;2.276;2023-03-03T11:16:25;99932.05;;;11.90;29.66
62592;BME280;48659;41.622;2.276;2023-03-03T11:19:06;99932.15;;;12.27;28.95
62592;BME280;48659;41.622;2.276;2023-03-03T11:21:43;99927.09;;;13.22;27.07
62592;BME280;48659;41.622;2.276;2023-03-03T11:24:22;99922.03;;;12.68;27.04
62592;BME280;48659;41.622;2.276;2023-03-03T11:27:05;99927.94;;;11.74;27.70
62592;BME280;48659;41.622;2.276;2023-03-03T11:29:44;99921.50;;;13.64;28.56
62592;BME280;48659;41.622;2.276;2023-03-03T11:32:23;99920.76;;;12.90;26.99
62592;BME280;48659;41.622;2.276;2023-03-03T11:34:58;99918.85;;;12.50;26.78
62592;BME280;48659;41.622;2.276;2023-03-03T11:37:37;99916.39;;;14.10;25.94
62592;BME280;48659;41.622;2.276;2023-03-03T11:40:14;99915.23;;;13.46;26.20
62592;BME280;48659;41.622;2.276;2023-03-03T11:42:59;99907.26;;;14.13;25.73
62592;BME280;48659;41.622;2.276;2023-03-03T11:45:34;99900.88;;;14.04;25.73
62592;BME280;48659;41.622;2.276;2023-03-03T11:48:09;99904.54;;;12.93;26.41
62592;BME280;48659;41.622;2.276;2023-03-03T11:50:44;99897.97;;;14.02;26.11
62592;BME280;48659;41.622;2.276;2023-03-03T11:53:28;99898.91;;;13.70;26.37
62592;BME280;48659;41.622;2.276;2023-03-03T11:56:05;99893.37;;;12.30;26.59
62592;BME280;48659;41.622;2.276;2023-03-03T11:58:41;99889.85;;;13.18;27.07
62592;BME280;48659;41.622;2.276;2023-03-03T12:01:18;99887.51;;;13.42;27.08
62592;BME280;48659;41.622;2.276;2023-03-03T12:03:59;99890.32;;;13.28;26.58
62592;BME280;48659;41.622;2.276;2023-03-03T12:06:35;99884.18;;;13.88;26.48
62592;BME280;48659;41.622;2.276;2023-03-03T12:09:17;99884.81;;;14.46;25.72
62592;BME280;48659;41.622;2.276;2023-03-03T12:11:53;99885.13;;;14.16;25.91
62592;BME280;48659;41.622;2.276;2023-03-03T12:14:34;99884.41;;;14.07;25.76
62592;BME280;48659;41.622;2.276;2023-03-03T12:17:14;99877.97;;;15.01;24.80
62592;BME280;48659;41.622;2.276;2023-03-03T12:20:01;99874.82;;;14.33;25.00
62592;BME280;48659;41.622;2.276;2023-03-03T12:22:33;99876.23;;;12.10;27.80
62592;BME280;48659;41.622;2.276;2023-03-03T12:25:12;99871.20;;;12.31;27.64
62592;BME280;48659;41.622;2.276;2023-03-03T12:27:57;99869.61;;;14.04;25.63
62592;BME280;48659;41.622;2.276;2023-03-03T12:30:56;99866.46;;;14.23;24.74
62592;BME280;48659;41.622;2.276;2023-03-03T12:33:36;99863.59;;;14.37;25.03
62592;BME280;48659;41.622;2.276;2023-03-03T12:36:20;99861.25;;;12.47;26.51
62592;BME280;48659;41.622;2.276;2023-03-03T12:38:56;99858.73;;;13.56;25.52
62592;BME280;48659;41.622;2.276;2023-03-03T12:41:31;99854.96;;;12.32;27.57
62592;BME280;48659;41.622;2.276;2023-03-03T12:44:07;99853.52;;;13.49;26.54
62592;BME280;48659;41.622;2.276;2023-03-03T12:46:44;99851.13;;;13.48;26.86
62592;BME280;48659;41.622;2.276;2023-03-03T12:49:16;99846.50;;;13.98;25.36
62592;BME280;48659;41.622;2.276;2023-03-03T12:51:57;99846.09;;;12.37;26.91
62592;BME280;48659;41.622;2.276;2023-03-03T12:54:42;99843.52;;;12.11;26.70
62592;BME280;48659;41.622;2.276;2023-03-03T12:57:21;99841.07;;;13.52;26.54
62592;BME280;48659;41.622;2.276;2023-03-03T13:00:18;99842.56;;;13.11;26.87
62592;BME280;48659;41.622;2.276;2023-03-03T13:03:01;99831.03;;;14.57;25.71
62592;BME280;48659;41.622;2.276;2023-03-03T13:05:42;99829.79;;;13.95;25.75
62592;BME280;48659;41.622;2.276;2023-03-03T13:08:24;99831.85;;;14.31;27.02
62592;BME280;48659;41.622;2.276;2023-03-03T13:11:11;99829.20;;;14.04;24.66
62592;BME280;48659;41.622;2.276;2023-03-03T13:13:50;99825.20;;;15.50;24.27
62592;BME280;48659;41.622;2.276;2023-03-03T13:16:26;99829.89;;;14.33;25.12
62592;BME280;48659;41.622;2.276;2023-03-03T13:19:00;99821.17;;;14.62;24.12
62592;BME280;48659;41.622;2.276;2023-03-03T13:21:33;99822.44;;;14.61;24.11
62592;BME280;48659;41.622;2.276;2023-03-03T13:24:06;99823.54;;;13.68;23.81
62592;BME280;48659;41.622;2.276;2023-03-03T13:26:46;99817.59;;;15.49;22.96
62592;BME280;48659;41.622;2.276;2023-03-03T13:29:25;99811.89;;;14.99;22.97
62592;BME280;48659;41.622;2.276;2023-03-03T13:31:55;99813.92;;;14.62;23.29
62592;BME280;48659;41.622;2.276;2023-03-03T13:34:32;99812.56;;;15.13;23.15
62592;BME280;48659;41.622;2.276;2023-03-03T13:37:06;99807.66;;;15.07;24.10
62592;BME280;48659;41.622;2.276;2023-03-03T13:39:44;99808.64;;;15.55;24.36
62592;BME280;48659;41.622;2.276;2023-03-03T13:42:23;99802.92;;;15.15;25.31
62592;BME280;48659;41.622;2.276;2023-03-03T13:44:56;99803.97;;;14.17;26.84
62592;BME280;48659;41.622;2.276;2023-03-03T13:47:31;99804.97;;;15.18;25.85